Time,TemperatureF,DewpointF,PressureIn,WindDirection,WindDirectionDegrees,WindSpeedMPH,WindSpeedGustMPH,Humidity,HourlyPrecipIn,Conditions,Clouds,dailyrainin,SoftwareType,DateUTC
2013-05-10 10:21:00,68.0,65.0,30.28,North,0,0.0,0.0,91,0.00,,,0.00,,2013-05-10 14:21:00,
2013-05-10 10:32:00,70.0,65.0,30.28,North,0,0.0,1.0,83,0.00,,,0.00,,2013-05-10 14:32:00,
2013-05-10 10:42:00,71.0,64.0,30.28,North,0,0.0,1.0,79,0.00,,,0.00,,2013-05-10 14:42:00,
2013-05-10 10:52:00,71.0,64.0,30.28,North,0,0.0,1.0,79,0.00,,,0.00,,2013-05-10 14:52:00,
2013-05-10 11:02:00,73.0,65.0,30.28,North,0,0.0,1.0,75,0.00,,,0.00,,2013-05-10 15:02:00,
2013-05-10 11:20:00,-999.0,-99.9,30.28,North,0,0.0,1.0,71,0.00,,,0.00,,2013-05-10 15:20:00,
2013-05-10 11:32:00,75.0,64.0,30.28,North,0,0.0,1.0,69,0.00,,,0.00,,2013-05-10 15:32:00,
2013-05-10 11:42:00,76.0,63.0,30.28,North,0,0.0,3.0,64,0.00,,,0.00,,2013-05-10 15:42:00,
2013-05-10 11:53:00,76.0,63.0,30.28,North,0,0.0,3.0,64,0.00,,,0.00,,2013-05-10 15:53:00,
2013-05-10 12:02:00,76.0,62.0,30.28,North,0,0.0,1.0,62,0.00,,,0.00,,2013-05-10 16:02:00,
2013-05-10 12:12:00,77.0,62.0,30.28,North,0,0.0,0.0,60,0.00,,,0.00,,2013-05-10 16:12:00,
2013-05-10 12:23:00,77.0,62.0,30.28,North,0,0.0,0.0,60,0.00,,,0.00,,2013-05-10 16:23:00,
2013-05-10 12:32:00,78.0,62.0,30.28,North,0,0.0,1.0,58,0.00,,,0.00,,2013-05-10 16:32:00,
2013-05-10 12:42:00,79.0,61.0,30.28,North,0,0.0,2.0,55,0.00,,,0.00,,2013-05-10 16:42:00,
2013-05-10 12:53:00,79.0,61.0,30.28,North,0,0.0,2.0,55,0.00,,,0.00,,2013-05-10 16:53:00,
2013-05-10 13:02:00,78.0,61.0,30.28,North,0,0.0,4.0,55,0.00,,,0.00,,2013-05-10 17:02:00,
2013-05-10 13:12:00,78.0,61.0,30.28,North,0,0.0,4.0,55,0.00,,,0.00,,2013-05-10 17:12:00,
2013-05-10 13:22:00,79.0,60.0,30.28,North,0,0.0,3.0,52,0.00,,,0.00,,2013-05-10 17:22:00,
2013-05-10 13:32:00,80.0,62.0,30.28,North,0,0.0,1.0,55,0.00,,,0.00,,2013-05-10 17:32:00,
2013-05-10 13:42:00,79.0,62.0,30.28,North,0,0.0,1.0,57,0.00,,,0.00,,2013-05-10 17:42:00,
2013-05-10 13:52:00,79.0,62.0,30.28,North,0,0.0,1.0,57,0.00,,,0.00,,2013-05-10 17:52:00,
2013-05-10 14:10:00,-999.0,-99.9,30.28,North,0,0.0,1.0,57,0.00,,,0.00,,2013-05-10 18:10:00,
2013-05-10 14:22:00,80.0,64.0,30.28,North,0,0.0,4.0,58,0.00,,,0.00,,2013-05-10 18:22:00,
2013-05-10 14:34:00,80.0,63.0,30.28,North,0,0.0,2.0,56,0.00,,,0.00,,2013-05-10 18:34:00,
2013-05-10 14:43:00,80.0,63.0,30.28,North,0,0.0,3.0,57,0.00,,,0.00,,2013-05-10 18:43:00,
2013-05-10 14:54:00,80.0,63.0,30.28,North,0,0.0,3.0,57,0.00,,,0.00,,2013-05-10 18:54:00,
2013-05-10 15:02:00,80.0,63.0,30.28,North,0,0.0,1.0,57,0.00,,,0.00,,2013-05-10 19:02:00,
2013-05-10 15:11:00,80.0,63.0,30.28,North,0,0.0,1.0,57,0.00,,,0.00,,2013-05-10 19:11:00,
2013-05-10 15:21:00,80.0,63.0,30.28,North,0,0.0,1.0,57,0.00,,,0.00,,2013-05-10 19:21:00,
2013-05-10 15:32:00,80.0,63.0,30.28,North,0,0.0,1.0,57,0.00,,,0.00,,2013-05-10 19:32:00,
2013-05-10 15:42:00,79.0,62.0,30.28,North,0,0.0,2.0,57,0.00,,,0.00,,2013-05-10 19:42:00,
2013-05-10 15:52:00,79.0,62.0,30.28,North,0,0.0,2.0,57,0.00,,,0.00,,2013-05-10 19:52:00,
2013-05-10 16:02:00,80.0,62.0,30.28,North,0,0.0,1.0,55,0.00,,,0.00,,2013-05-10 20:02:00,
2013-05-10 16:12:00,80.0,62.0,30.28,North,0,0.0,1.0,55,0.00,,,0.00,,2013-05-10 20:12:00,
2013-05-10 16:21:00,80.0,62.0,30.28,North,0,0.0,3.0,54,0.00,,,0.00,,2013-05-10 20:21:00,
2013-05-10 16:32:00,80.0,62.0,30.28,North,0,0.0,2.0,55,0.00,,,0.00,,2013-05-10 20:32:00,
2013-05-10 16:42:00,80.0,62.0,30.28,North,0,0.0,2.0,55,0.00,,,0.00,,2013-05-10 20:42:00,
2013-05-10 16:52:00,80.0,62.0,30.28,North,0,0.0,3.0,55,0.00,,,0.00,,2013-05-10 20:52:00,
2013-05-10 17:02:00,79.0,62.0,30.28,North,0,0.0,1.0,57,0.00,,,0.00,,2013-05-10 21:02:00,
2013-05-10 17:11:00,79.0,63.0,30.28,West,262,1.0,4.0,59,0.00,,,0.00,,2013-05-10 21:11:00,
2013-05-10 17:25:00,79.0,63.0,30.28,West,262,1.0,4.0,59,0.00,,,0.00,,2013-05-10 21:25:00,
2013-05-10 17:32:00,78.0,62.0,30.28,North,0,0.0,1.0,59,0.00,,,0.00,,2013-05-10 21:32:00,
2013-05-10 17:43:00,78.0,62.0,30.28,North,0,0.0,3.0,59,0.00,,,0.00,,2013-05-10 21:43:00,
2013-05-10 17:53:00,78.0,62.0,30.28,North,0,0.0,3.0,59,0.00,,,0.00,,2013-05-10 21:53:00,
2013-05-10 18:02:00,77.0,62.0,30.28,North,0,0.0,1.0,60,0.00,,,0.00,,2013-05-10 22:02:00,
2013-05-10 18:13:00,77.0,61.0,30.28,North,0,0.0,1.0,58,0.00,,,0.00,,2013-05-10 22:13:00,
2013-05-10 18:22:00,77.0,61.0,30.28,North,0,0.0,1.0,58,0.00,,,0.00,,2013-05-10 22:22:00,
2013-05-10 18:32:00,77.0,62.0,30.28,North,0,0.0,2.0,59,0.00,,,0.00,,2013-05-10 22:32:00,
2013-05-10 18:42:00,76.0,61.0,30.28,North,0,0.0,5.0,59,0.00,,,0.00,,2013-05-10 22:42:00,
2013-05-10 18:52:00,76.0,61.0,30.28,North,0,0.0,5.0,59,0.00,,,0.00,,2013-05-10 22:52:00,
2013-05-10 19:02:00,76.0,63.0,30.28,North,0,0.0,1.0,64,0.00,,,0.00,,2013-05-10 23:02:00,
2013-05-10 19:12:00,76.0,63.0,30.28,North,0,0.0,1.0,64,0.00,,,0.00,,2013-05-10 23:12:00,
2013-05-10 19:22:00,75.0,63.0,30.28,North,0,0.0,0.0,67,0.00,,,0.00,,2013-05-10 23:22:00,
2013-05-10 19:33:00,75.0,64.0,30.28,North,0,0.0,1.0,68,0.00,,,0.00,,2013-05-10 23:33:00,
2013-05-10 19:42:00,74.0,-99.9,30.28,North,0,0.0,0.0,-999,0.00,,,0.00,,2013-05-10 23:42:00,
2013-05-10 19:52:00,74.0,-99.9,30.28,North,0,0.0,0.0,-999,0.00,,,0.00,,2013-05-10 23:52:00,